Terminal Aerodrome Forecast
Issued by NWS Mt. Holly, NJ

Home | Current Version | Previous Version | Text Only | Print | Product List | Glossary On
Versions: 1 2 3 4 5 6 7 8 9 10 11 12 13 14 15 16 17 18 19 20 21 22 23 24 25 26 27 28 29 30 31 32 33 34 35 36 37 38 39 40 41 42 43 44 45 46 47 48 49 50
000
FTUS41 KPHI 261509 AAC
TAFPHL
TAF AMD
KPHL 261509Z 2615/2718 12010G18KT P6SM SCT006 BKN015
      TEMPO 2615/2617 4SM TSRA BR BKN006 OVC015CB
     FM261700 15010G18KT P6SM VCSH OVC015
     FM261800 19012G20KT P6SM VCSH SCT015 BKN035
     FM262100 21014G22KT 4SM TSRA BR OVC020CB
     FM262300 28012G24KT P6SM BKN035
     FM271200 28017G27KT P6SM SCT050=

USA.gov is the U.S. government's official web portal to all federal, state and local government web resources and services.